Time;durP1;ratioP1;P1;durP2;ratioP2;P2;SDS_P1;SDS_P2;PMS_P1;PMS_P2;Temp;Humidity;BMP_temperature;BMP_pressure;BME280_temperature;BME280_humidity;BME280_pressure;Samples;Min_cycle;Max_cycle;Signal;HPM_P1;HPM_P2
2022/04/04 00:01:48;;;;;;;;;23.25;21.25;;;;;8.12;35.60;101816.13;5002758;28;45446;-65
2022/04/04 00:04:14;;;;;;;;;19.75;16.25;;;;;8.11;35.97;101817.00;5003074;28;45314;-62
2022/04/04 00:06:40;;;;;;;;;23.25;21.25;;;;;8.07;35.93;101812.56;5001096;28;46737;-62
2022/04/04 00:09:05;;;;;;;;;24.50;22.00;;;;;8.07;36.06;101817.81;5002740;28;45281;-62
2022/04/04 00:11:30;;;;;;;;;23.50;20.50;;;;;8.06;36.25;101810.84;5001528;28;45244;-62
2022/04/04 00:13:56;;;;;;;;;19.25;19.25;;;;;8.04;36.26;101817.78;5002382;28;45167;-63
2022/04/04 00:16:21;;;;;;;;;22.50;19.50;;;;;8.02;36.41;101816.88;5002144;28;46837;-62
2022/04/04 00:18:46;;;;;;;;;20.25;18.25;;;;;8.02;36.19;101822.09;5002849;28;45218;-62
2022/04/04 00:21:12;;;;;;;;;19.25;19.25;;;;;8.01;36.21;101820.34;5002476;28;45537;-63
2022/04/04 00:23:37;;;;;;;;;17.00;16.00;;;;;8.00;36.19;101818.63;5002765;28;45218;-62
2022/04/04 00:26:05;;;;;;;;;17.75;16.50;;;;;7.97;36.26;101819.44;5000683;28;46186;-64
2022/04/04 00:28:31;;;;;;;;;18.25;18.25;;;;;7.96;36.24;101819.41;5002083;28;45374;-62
2022/04/04 00:30:56;;;;;;;;;21.00;17.00;;;;;7.94;36.52;101813.28;5002169;28;45281;-63
2022/04/04 00:33:21;;;;;;;;;21.25;20.00;;;;;7.91;36.49;101811.50;5000986;28;45440;-64
2022/04/04 00:35:47;;;;;;;;;21.25;21.25;;;;;7.93;36.42;101815.00;5001983;28;46297;-63
2022/04/04 00:38:14;;;;;;;;;19.75;19.75;;;;;7.92;36.56;101807.13;5001833;28;45378;-63
2022/04/04 00:40:40;;;;;;;;;27.25;23.75;;;;;7.90;36.71;101806.22;5001945;28;45464;-63
2022/04/04 00:43:06;;;;;;;;;20.00;19.25;;;;;7.86;36.68;101805.34;5001971;28;45258;-63
2022/04/04 00:45:31;;;;;;;;;22.75;21.50;;;;;7.86;36.77;101805.34;5001878;28;45942;-63
2022/04/04 00:47:56;;;;;;;;;19.00;17.00;;;;;7.84;36.56;101807.03;5000944;28;45314;-63
2022/04/04 00:50:25;;;;;;;;;16.75;16.50;;;;;7.84;36.71;101804.41;5001987;28;45188;-63
2022/04/04 00:52:51;;;;;;;;;17.50;15.50;;;;;7.82;36.84;101800.88;5002194;28;45274;-63
2022/04/04 00:55:17;;;;;;;;;20.25;20.00;;;;;7.81;36.70;101799.13;5001551;28;46181;-63
2022/04/04 00:57:42;;;;;;;;;15.75;15.25;;;;;7.78;36.80;101794.72;5001913;28;45387;-63
2022/04/04 01:00:09;;;;;;;;;23.75;19.50;;;;;7.77;37.02;101798.22;5001525;28;45485;-63
2022/04/04 01:02:36;;;;;;;;;19.25;19.25;;;;;7.75;37.13;101799.94;5001895;28;45236;-63
2022/04/04 01:05:01;;;;;;;;;19.00;17.75;;;;;7.75;37.11;101793.84;5001744;28;45234;-63
2022/04/04 01:07:26;;;;;;;;;16.25;16.25;;;;;7.73;37.24;101791.16;5001755;28;45389;-63
2022/04/04 01:09:52;;;;;;;;;16.50;15.50;;;;;7.70;37.04;101796.38;5001633;28;45238;-63
2022/04/04 01:12:19;;;;;;;;;18.75;16.00;;;;;7.70;37.20;101795.47;5001725;28;45220;-63
2022/04/04 01:14:48;;;;;;;;;15.25;14.25;;;;;7.68;37.34;101791.97;5001326;28;46134;-63
2022/04/04 01:17:18;;;;;;;;;21.00;19.00;;;;;7.64;37.44;101785.81;5001346;28;45355;-63
2022/04/04 01:19:44;;;;;;;;;15.00;15.00;;;;;7.62;37.44;101790.13;5001604;28;45306;-63
2022/04/04 01:22:12;;;;;;;;;20.25;18.00;;;;;7.60;37.01;101781.41;5001438;28;45355;-63
2022/04/04 01:24:38;;;;;;;;;16.25;16.25;;;;;7.59;37.43;101783.13;5001101;28;45366;-63
2022/04/04 01:27:06;;;;;;;;;16.25;14.75;;;;;7.57;37.53;101783.97;5000075;28;45306;-63
2022/04/04 01:29:32;;;;;;;;;16.00;15.00;;;;;7.55;37.57;101780.47;5001184;28;45258;-63
2022/04/04 01:31:57;;;;;;;;;16.25;16.25;;;;;7.55;37.64;101778.72;5001377;28;45315;-62
2022/04/04 01:34:23;;;;;;;;;15.25;14.50;;;;;7.53;37.61;101777.78;5001239;28;45519;-63
2022/04/04 01:36:50;;;;;;;;;16.50;16.50;;;;;7.52;37.76;101776.06;5001411;28;45209;-63
2022/04/04 01:39:16;;;;;;;;;12.50;12.50;;;;;7.50;37.63;101769.91;5001170;28;45417;-63
2022/04/04 01:41:42;;;;;;;;;14.50;14.00;;;;;7.49;37.69;101770.78;4999848;28;45528;-63
2022/04/04 01:44:08;;;;;;;;;15.50;14.75;;;;;7.48;37.67;101769.91;5000861;28;46374;-63
2022/04/04 01:46:34;;;;;;;;;13.25;13.25;;;;;7.46;37.71;101768.13;4999696;28;45341;-63
2022/04/04 01:49:03;;;;;;;;;15.50;15.50;;;;;7.43;37.95;101766.34;5001390;28;45338;-63
2022/04/04 01:51:30;;;;;;;;;15.00;13.75;;;;;7.43;38.03;101765.44;5000054;28;45463;-63
2022/04/04 01:53:56;;;;;;;;;15.75;15.00;;;;;7.42;38.00;101763.69;5000744;28;46301;-63
2022/04/04 01:56:22;;;;;;;;;14.00;14.00;;;;;7.40;37.86;101763.66;5000733;28;45388;-63
2022/04/04 01:58:48;;;;;;;;;14.25;13.25;;;;;7.40;37.99;101760.19;5000907;28;45391;-63
2022/04/04 02:01:16;;;;;;;;;13.50;12.50;;;;;7.38;37.88;101754.91;5000798;28;45547;-63
2022/04/04 02:03:44;;;;;;;;;14.00;13.00;;;;;7.38;38.23;101756.66;5000778;28;45995;-63
2022/04/04 02:06:10;;;;;;;;;12.50;12.50;;;;;7.36;38.15;101754.03;5000724;28;45428;-62
2022/04/04 02:08:36;;;;;;;;;12.50;12.50;;;;;7.31;38.14;101746.09;5000756;28;45302;-63
2022/04/04 02:11:03;;;;;;;;;12.50;12.50;;;;;7.35;38.16;101752.25;5000710;28;45556;-63
2022/04/04 02:13:29;;;;;;;;;14.00;10.25;;;;;7.30;38.37;101746.94;5000380;28;45281;-63
2022/04/04 02:15:57;;;;;;;;;13.00;13.00;;;;;7.32;38.26;101747.00;5000817;28;45259;-63
2022/04/04 02:18:23;;;;;;;;;12.75;11.25;;;;;7.28;38.04;101743.44;5000604;28;45147;-63
2022/04/04 02:20:49;;;;;;;;;13.00;11.75;;;;;7.30;38.27;101746.09;5000515;28;46173;-63
2022/04/04 02:23:18;;;;;;;;;13.75;13.50;;;;;7.30;38.14;101740.84;5000584;28;45759;-63
2022/04/04 02:25:48;;;;;;;;;11.75;11.00;;;;;7.28;38.37;101740.84;5000396;28;45386;-63
2022/04/04 02:28:14;;;;;;;;;11.75;11.00;;;;;7.26;38.12;101741.66;5000188;28;45272;-63
2022/04/04 02:30:41;;;;;;;;;14.50;14.00;;;;;7.26;38.35;101737.31;5000585;28;45374;-63
2022/04/04 02:33:07;;;;;;;;;11.00;9.75;;;;;7.25;38.17;101742.50;5000276;28;45444;-63
2022/04/04 02:35:33;;;;;;;;;11.25;10.50;;;;;7.22;38.16;101732.91;5000543;28;45316;-63
2022/04/04 02:37:59;;;;;;;;;10.75;10.00;;;;;7.21;38.31;101738.97;5000516;28;45282;-63
2022/04/04 02:40:24;;;;;;;;;11.00;9.00;;;;;7.21;38.41;101738.97;5000234;28;45313;-63
2022/04/04 02:42:50;;;;;;;;;10.00;7.00;;;;;7.21;38.31;101730.22;4998854;28;45609;-63
2022/04/04 02:45:16;;;;;;;;;7.00;7.00;;;;;7.19;38.45;101730.22;5000236;28;45275;-63
2022/04/04 02:47:42;;;;;;;;;10.25;9.50;;;;;7.18;38.55;101730.19;4999111;28;45274;-63
2022/04/04 02:50:08;;;;;;;;;9.50;8.50;;;;;7.15;38.52;101729.28;5000323;28;45234;-64
2022/04/04 02:52:34;;;;;;;;;11.75;10.25;;;;;7.13;38.55;101732.72;5000014;28;45293;-63
2022/04/04 02:56:28;;;;;;;;;10.50;10.50;;;;;7.12;38.60;101726.63;5000177;28;46242;-63
2022/04/04 02:57:45;;;;;;;;;10.50;10.00;;;;;7.10;38.39;101728.34;5000306;28;45308;-63
2022/04/04 03:00:11;;;;;;;;;12.00;11.00;;;;;7.06;38.55;101717.81;4998571;28;45362;-64
2022/04/04 03:02:36;;;;;;;;;10.50;10.50;;;;;7.09;38.67;101729.19;4999662;28;45269;-63
2022/04/04 03:05:01;;;;;;;;;19.50;17.00;;;;;7.07;38.63;101730.00;4999973;28;45257;-67
2022/04/04 03:07:27;;;;;;;;;14.25;13.50;;;;;7.01;38.51;101728.19;5000320;28;45258;-63
2022/04/04 03:09:52;;;;;;;;;11.25;11.25;;;;;7.00;38.90;101722.06;4999799;28;45482;-63
2022/04/04 03:12:18;;;;;;;;;13.25;13.00;;;;;7.03;38.74;101723.88;5000059;28;47028;-63
2022/04/04 03:14:44;;;;;;;;;16.50;15.25;;;;;6.99;38.78;101717.72;4999558;28;45495;-63
2022/04/04 03:17:10;;;;;;;;;14.00;13.00;;;;;6.98;38.73;101715.06;4998574;28;45278;-63
2022/04/04 03:19:35;;;;;;;;;14.50;12.75;;;;;6.96;38.94;101715.03;4999777;28;45240;-63
2022/04/04 03:22:01;;;;;;;;;15.25;15.25;;;;;6.94;38.96;101708.03;4999673;28;45194;-63
2022/04/04 03:24:26;;;;;;;;;17.00;13.50;;;;;6.95;38.90;101720.25;4999618;28;45186;-63
2022/04/04 03:26:52;;;;;;;;;14.00;14.00;;;;;6.92;39.00;101705.41;4998565;28;45540;-63
2022/04/04 03:29:18;;;;;;;;;15.50;14.00;;;;;6.90;39.01;101703.63;4999531;28;45234;-63
2022/04/04 03:31:43;;;;;;;;;15.00;13.25;;;;;6.89;38.94;101712.31;4999747;28;46169;-63
2022/04/04 03:34:08;;;;;;;;;17.00;15.50;;;;;6.86;39.16;101712.28;4998414;28;45459;-63
2022/04/04 03:36:34;;;;;;;;;16.25;13.50;;;;;6.86;39.03;101704.44;4999839;28;45231;-63
2022/04/04 03:38:59;;;;;;;;;15.25;13.25;;;;;6.83;39.03;101700.91;4999532;28;45214;-63
2022/04/04 03:41:25;;;;;;;;;10.50;9.75;;;;;6.79;39.28;101695.59;4999511;28;46305;-63
2022/04/04 03:43:51;;;;;;;;;16.00;14.75;;;;;6.81;39.14;101697.38;4999174;28;45397;-63
2022/04/04 03:46:16;;;;;;;;;21.75;19.50;;;;;6.79;39.20;101691.25;4998245;28;45440;-63
2022/04/04 03:48:42;;;;;;;;;17.00;15.00;;;;;6.78;39.07;101692.13;4999372;28;45341;-63
2022/04/04 03:51:09;;;;;;;;;18.00;16.25;;;;;6.75;39.10;101693.78;4998151;28;46151;-63
2022/04/04 03:53:35;;;;;;;;;19.25;18.25;;;;;6.73;39.37;101687.66;4999370;28;45334;-63
2022/04/04 03:56:00;;;;;;;;;19.75;15.75;;;;;6.72;39.11;101686.78;4999298;28;45354;-63
2022/04/04 03:58:26;;;;;;;;;14.25;14.00;;;;;6.71;39.32;101682.41;4999256;28;45171;-63
2022/04/04 04:00:51;;;;;;;;;15.75;13.50;;;;;6.64;39.48;101676.22;4999285;28;46202;-63
2022/04/04 04:03:16;;;;;;;;;22.50;20.75;;;;;6.67;39.55;101678.00;4999339;28;45268;-63
2022/04/04 04:05:42;;;;;;;;;43.50;38.00;;;;;6.63;39.71;101671.84;4999528;28;45562;-62
2022/04/04 04:08:07;;;;;;;;;24.50;23.25;;;;;6.64;39.61;101680.53;4999266;28;45448;-63
2022/04/04 04:10:32;;;;;;;;;46.75;38.50;;;;;6.60;39.76;101677.03;4999072;28;45977;-63
2022/04/04 04:13:00;;;;;;;;;20.00;19.00;;;;;6.57;39.49;101676.09;4999033;28;45329;-63
2022/04/04 04:15:25;;;;;;;;;24.50;21.75;;;;;6.58;39.59;101683.03;5000994;28;45321;-63
2022/04/04 04:17:52;;;;;;;;;22.50;20.25;;;;;6.56;39.64;101674.31;5002150;28;45362;-63
2022/04/04 04:20:19;;;;;;;;;22.75;20.50;;;;;6.51;39.49;101671.63;5002419;28;45348;-63
2022/04/04 04:22:45;;;;;;;;;22.50;20.00;;;;;6.50;39.59;101667.25;5002296;28;45334;-63
2022/04/04 04:25:11;;;;;;;;;23.75;21.50;;;;;6.47;39.82;101668.06;5002411;28;45330;-63
2022/04/04 04:27:37;;;;;;;;;19.25;19.25;;;;;6.47;39.71;101673.28;5002125;28;45638;-63
2022/04/04 04:30:03;;;;;;;;;19.75;18.00;;;;;6.43;39.80;101668.88;5002114;28;46206;-63
2022/04/04 04:32:30;;;;;;;;;20.75;20.00;;;;;6.44;39.61;101669.75;5002066;28;45403;-62
2022/04/04 04:34:56;;;;;;;;;19.75;19.00;;;;;6.37;39.69;101660.94;5001235;28;45334;-63
2022/04/04 04:37:21;;;;;;;;;22.75;20.50;;;;;6.39;39.75;101667.06;5002148;28;45649;-63
2022/04/04 04:39:47;;;;;;;;;20.50;19.50;;;;;6.37;39.93;101663.53;5002374;28;45385;-63
2022/04/04 04:42:13;;;;;;;;;20.75;20.50;;;;;6.31;39.92;101650.38;5002016;28;45266;-64
2022/04/04 04:44:38;;;;;;;;;21.25;19.50;;;;;6.28;39.58;101645.97;5002165;28;45341;-64
2022/04/04 04:47:05;;;;;;;;;21.00;21.00;;;;;6.28;39.84;101647.72;5000654;28;45389;-64
2022/04/04 04:49:31;;;;;;;;;18.50;17.25;;;;;6.25;39.96;101650.25;5002196;28;45338;-64
2022/04/04 04:51:57;;;;;;;;;26.25;22.25;;;;;6.16;40.07;101630.09;5001920;28;45250;-63
2022/04/04 04:54:23;;;;;;;;;23.75;19.50;;;;;6.20;40.04;101647.59;5000575;28;45171;-64
2022/04/04 04:56:48;;;;;;;;;22.25;20.50;;;;;6.16;40.10;101651.88;5001841;28;45307;-64
2022/04/04 04:59:14;;;;;;;;;48.75;39.75;;;;;6.15;40.19;101647.50;5001453;28;45279;-62
2022/04/04 05:01:40;;;;;;;;;30.50;29.50;;;;;6.11;40.14;101648.28;5000334;28;45337;-62
2022/04/04 05:04:05;;;;;;;;;27.00;22.25;;;;;6.05;40.03;101648.19;5002021;28;45436;-62
2022/04/04 05:06:31;;;;;;;;;23.00;20.25;;;;;6.03;39.98;101651.63;5001577;28;45533;-62
2022/04/04 05:08:59;;;;;;;;;27.75;23.75;;;;;6.00;40.28;101649.81;5001743;28;46242;-62
2022/04/04 05:11:28;;;;;;;;;22.00;19.50;;;;;5.95;40.61;101648.78;5001627;28;45559;-60
2022/04/04 05:13:54;;;;;;;;;27.25;22.00;;;;;5.95;40.20;101652.31;5000220;28;45259;-61
2022/04/04 05:16:19;;;;;;;;;24.50;23.25;;;;;5.92;40.22;101652.22;5001371;28;45351;-59
2022/04/04 05:18:45;;;;;;;;;24.00;22.75;;;;;5.89;40.21;101659.09;5001548;28;45532;-61
2022/04/04 05:21:11;;;;;;;;;24.00;19.00;;;;;5.86;40.22;101657.31;5001406;28;45522;-61
2022/04/04 05:23:38;;;;;;;;;22.50;22.50;;;;;5.83;40.41;101660.75;5001609;28;45327;-61
2022/04/04 05:26:04;;;;;;;;;21.25;16.00;;;;;5.80;40.54;101655.47;4999676;28;45475;-60
2022/04/04 05:28:29;;;;;;;;;22.50;19.75;;;;;5.73;40.60;101645.78;4999852;28;48359;-62
2022/04/04 05:30:55;;;;;;;;;23.25;20.75;;;;;5.76;40.43;101651.06;5001321;28;45252;-63
2022/04/04 05:33:20;;;;;;;;;15.25;15.25;;;;;5.72;40.50;101646.63;5000531;28;45991;-62
2022/04/04 05:35:46;;;;;;;;;23.25;22.25;;;;;5.71;40.79;101652.69;5001336;28;45222;-64
2022/04/04 05:38:13;;;;;;;;;21.75;19.00;;;;;5.69;40.54;101644.81;5001163;28;46834;-62
2022/04/04 05:40:38;;;;;;;;;29.50;28.00;;;;;5.67;40.67;101646.53;5000898;28;45471;-63
2022/04/04 05:43:04;;;;;;;;;24.00;22.50;;;;;5.63;41.02;101647.31;5001510;28;45222;-63
2022/04/04 05:45:30;;;;;;;;;32.25;30.75;;;;;5.64;40.73;101648.19;5001162;28;45342;-62
2022/04/04 05:47:55;;;;;;;;;36.25;34.00;;;;;5.62;40.54;101647.28;5000938;28;46081;-62
2022/04/04 05:50:20;;;;;;;;;43.00;37.50;;;;;5.58;40.78;101648.06;5001088;28;45313;-61
2022/04/04 05:52:46;;;;;;;;;43.50;38.00;;;;;5.57;40.70;101646.31;4999396;28;45360;-66
2022/04/04 05:55:12;;;;;;;;;36.00;33.00;;;;;5.54;40.68;101648.00;4999334;28;45365;-46
2022/04/04 05:57:40;;;;;;;;;35.00;31.50;;;;;5.55;41.17;101651.50;5000253;28;45263;-67
2022/04/04 06:00:10;;;;;;;;;39.00;35.25;;;;;5.49;41.02;101643.53;5000332;28;45558;-65
2022/04/04 06:02:38;;;;;;;;;31.25;25.50;;;;;5.51;41.18;101653.16;4999585;28;45353;-64
2022/04/04 06:05:09;;;;;;;;;31.00;27.50;;;;;5.49;40.72;101643.53;4988158;28;45753;-64
2022/04/04 06:07:36;;;;;;;;;33.75;30.75;;;;;5.42;41.08;101639.94;4993342;28;46916;-68
2022/04/04 06:10:07;;;;;;;;;35.00;32.50;;;;;5.45;41.10;101647.81;4999903;28;45388;-65
2022/04/04 06:12:34;;;;;;;;;45.25;37.00;;;;;5.42;41.23;101649.47;4996176;28;45326;-65
2022/04/04 06:15:00;;;;;;;;;38.50;34.75;;;;;5.43;40.90;101649.50;4999891;28;45356;-60
2022/04/04 06:17:25;;;;;;;;;40.50;35.25;;;;;5.34;41.15;101637.13;4999983;28;45383;-63
2022/04/04 06:19:50;;;;;;;;;38.00;32.75;;;;;5.35;41.15;101638.03;4998992;28;45309;-67
2022/04/04 06:22:16;;;;;;;;;29.50;27.25;;;;;5.33;41.21;101632.78;4990869;28;45286;-67
2022/04/04 06:24:41;;;;;;;;;37.75;34.00;;;;;5.37;41.26;101641.53;4998916;28;45507;-67
2022/04/04 06:27:07;;;;;;;;;60.50;48.75;;;;;5.35;41.52;101645.84;4999795;28;45974;-65
2022/04/04 06:29:33;;;;;;;;;44.50;37.50;;;;;5.34;41.59;101638.88;5000191;28;45421;-66
2022/04/04 06:31:59;;;;;;;;;28.00;24.75;;;;;5.33;41.45;101643.22;5000475;28;45318;-66
2022/04/04 06:34:24;;;;;;;;;32.00;29.75;;;;;5.31;41.18;101638.81;5000563;28;45328;-68
2022/04/04 06:36:51;;;;;;;;;28.50;27.50;;;;;5.32;41.27;101643.16;5005712;28;45837;-68
2022/04/04 06:39:17;;;;;;;;;32.50;30.00;;;;;5.32;41.31;101635.34;5000040;28;45392;-69
2022/04/04 06:41:42;;;;;;;;;26.75;23.75;;;;;5.33;41.24;101631.91;4998730;28;45404;-68
2022/04/04 06:44:08;;;;;;;;;30.75;27.75;;;;;5.31;41.71;101628.41;5000171;28;45412;-68
2022/04/04 06:46:36;;;;;;;;;26.50;24.25;;;;;5.30;41.34;101627.50;4999978;28;46186;-68
2022/04/04 06:49:03;;;;;;;;;32.00;26.75;;;;;5.30;41.59;101626.63;4999091;28;45342;-69
2022/04/04 06:51:29;;;;;;;;;27.00;24.50;;;;;5.25;41.66;101636.94;5000243;28;45437;-69
2022/04/04 06:53:54;;;;;;;;;31.25;26.75;;;;;5.20;41.86;101639.44;4999380;28;45600;-69
2022/04/04 06:56:19;;;;;;;;;33.75;29.50;;;;;5.20;42.02;101636.84;4999954;28;45340;-70
2022/04/04 06:58:45;;;;;;;;;28.25;24.75;;;;;5.16;41.96;101628.94;4999847;28;45422;-69
2022/04/04 07:01:10;;;;;;;;;27.75;24.50;;;;;5.19;41.67;101629.00;5000337;28;45237;-70
2022/04/04 07:03:36;;;;;;;;;28.25;26.50;;;;;5.17;41.83;101631.56;4999961;28;45538;-69
2022/04/04 07:06:01;;;;;;;;;30.75;26.50;;;;;5.16;42.01;101632.41;4999901;28;45396;-70
2022/04/04 07:08:28;;;;;;;;;33.50;30.50;;;;;5.17;41.64;101626.34;4999902;28;45223;-69
2022/04/04 07:10:53;;;;;;;;;32.25;28.50;;;;;5.19;42.11;101635.09;4999841;28;45246;-70
2022/04/04 07:13:19;;;;;;;;;30.75;28.50;;;;;5.20;41.86;101626.41;4998221;28;45396;-69
2022/04/04 07:15:44;;;;;;;;;30.25;27.50;;;;;5.23;42.02;101617.78;4999780;28;45455;-70
2022/04/04 07:18:10;;;;;;;;;36.25;28.00;;;;;5.23;41.88;101620.38;4999382;28;45148;-70
2022/04/04 07:20:36;;;;;;;;;29.75;26.00;;;;;5.26;41.95;101609.16;4998717;28;45357;-70
2022/04/04 07:23:02;;;;;;;;;28.00;27.00;;;;;5.26;41.92;101610.03;4998482;28;45542;-69
2022/04/04 07:25:28;;;;;;;;;27.25;24.75;;;;;5.30;42.06;101609.25;4999789;28;45978;-69
2022/04/04 07:27:54;;;;;;;;;33.75;29.75;;;;;5.33;42.31;101606.72;4999489;28;45285;-69
2022/04/04 07:30:20;;;;;;;;;24.00;22.25;;;;;5.36;42.19;101608.53;4999986;28;45667;-69
2022/04/04 07:32:47;;;;;;;;;32.00;29.50;;;;;5.40;42.21;101601.66;4999565;28;45532;-69
2022/04/04 07:35:13;;;;;;;;;18.75;18.75;;;;;5.46;42.43;101601.75;4999644;28;46091;-69
2022/04/04 07:37:43;;;;;;;;;23.50;22.00;;;;;5.47;42.38;101600.91;4999602;28;45284;-69
2022/04/04 07:40:14;;;;;;;;;18.75;17.00;;;;;5.56;41.86;101595.00;4999651;28;45436;-69
2022/04/04 07:42:42;;;;;;;;;13.00;12.25;;;;;5.60;41.73;101595.09;4999219;28;45326;-69
2022/04/04 07:45:11;;;;;;;;;15.25;13.75;;;;;5.57;41.44;101574.16;4999545;28;46134;-69
2022/04/04 07:47:37;;;;;;;;;12.25;11.75;;;;;5.70;41.60;101585.72;4999647;28;45319;-69
2022/04/04 07:50:04;;;;;;;;;11.75;11.75;;;;;5.74;41.40;101573.63;5002178;28;45299;-69
2022/04/04 07:52:29;;;;;;;;;17.50;16.50;;;;;5.80;41.82;101578.97;5002933;28;46329;-68
2022/04/04 07:54:55;;;;;;;;;15.00;13.75;;;;;5.86;41.71;101579.97;5002628;28;46151;-68
2022/04/04 07:57:21;;;;;;;;;13.50;13.25;;;;;5.82;41.30;101553.78;5002645;28;45400;-68
2022/04/04 07:59:47;;;;;;;;;10.25;8.00;;;;;5.96;41.45;101565.34;5002797;28;45348;-69
2022/04/04 08:02:12;;;;;;;;;14.00;9.25;;;;;6.02;41.07;101564.59;5002712;28;45460;-69
2022/04/04 08:04:38;;;;;;;;;16.00;14.00;;;;;6.08;41.44;101564.72;5001260;28;47236;-69
2022/04/04 08:07:04;;;;;;;;;13.50;13.50;;;;;6.15;41.33;101558.75;5002672;28;45266;-69
2022/04/04 08:09:30;;;;;;;;;12.50;11.50;;;;;6.23;41.22;101560.63;5001355;28;45382;-69
2022/04/04 08:11:56;;;;;;;;;5.25;5.25;;;;;6.29;41.15;101566.81;5002733;28;45373;-69
2022/04/04 08:14:23;;;;;;;;;8.00;8.00;;;;;6.29;40.71;101555.47;5002170;28;46153;-69
2022/04/04 08:16:49;;;;;;;;;6.00;6.00;;;;;6.41;40.99;101553.06;5002491;28;45227;-69
2022/04/04 08:19:15;;;;;;;;;8.75;8.75;;;;;6.51;40.87;101556.72;5002564;28;45309;-69
2022/04/04 08:21:44;;;;;;;;;9.50;5.50;;;;;6.54;40.79;101548.03;5002561;28;45366;-69
2022/04/04 08:24:10;;;;;;;;;8.75;7.00;;;;;6.62;40.11;101539.47;5000806;28;46570;-69
2022/04/04 08:26:36;;;;;;;;;8.00;6.25;;;;;6.67;40.36;101543.03;5002540;28;45285;-70
2022/04/04 08:29:02;;;;;;;;;5.75;4.75;;;;;6.72;40.48;101537.88;5002178;28;45333;-69
2022/04/04 08:31:27;;;;;;;;;6.50;3.75;;;;;6.76;40.54;101537.06;5001275;28;45274;-69
2022/04/04 08:33:53;;;;;;;;;4.75;2.75;;;;;6.89;40.26;101532.00;5002077;28;46237;-68
2022/04/04 08:36:18;;;;;;;;;7.00;7.00;;;;;6.95;40.29;101532.09;5002212;28;45254;-70
2022/04/04 08:38:44;;;;;;;;;9.00;7.50;;;;;7.04;40.34;101544.41;5002311;28;45868;-69
2022/04/04 08:41:10;;;;;;;;;8.00;6.25;;;;;7.18;39.60;101535.00;5000737;28;45555;-70
2022/04/04 08:43:43;;;;;;;;;6.00;6.00;;;;;7.20;39.86;101524.56;5001745;28;46273;-67
2022/04/04 08:46:09;;;;;;;;;5.00;5.00;;;;;7.24;39.49;101528.97;5002489;28;45461;-67
2022/04/04 08:48:40;;;;;;;;;6.50;5.75;;;;;7.27;39.68;101523.78;5002028;28;45234;-69
2022/04/04 08:51:10;;;;;;;;;7.75;6.50;;;;;7.34;39.87;101523.00;5002390;28;45263;-68
2022/04/04 08:53:37;;;;;;;;;6.75;5.75;;;;;7.41;39.91;101522.22;5001744;28;45412;-69
2022/04/04 08:56:04;;;;;;;;;5.75;4.75;;;;;7.49;39.80;101514.44;5001684;28;45329;-68
2022/04/04 08:58:30;;;;;;;;;7.50;6.75;;;;;7.63;39.48;101514.59;5001653;28;45420;-68
2022/04/04 09:00:55;;;;;;;;;7.25;6.25;;;;;7.68;39.47;101518.13;5001343;28;45521;-69
2022/04/04 09:03:23;;;;;;;;;6.00;5.75;;;;;7.71;39.27;101514.66;5001672;28;45233;-68
2022/04/04 09:05:54;;;;;;;;;6.50;6.50;;;;;7.80;39.40;101505.16;5001861;28;45278;-69
2022/04/04 09:08:20;;;;;;;;;8.00;5.75;;;;;7.89;39.50;101508.75;5001752;28;45330;-68
2022/04/04 09:10:47;;;;;;;;;3.00;3.00;;;;;7.95;39.37;101508.81;5002020;28;45306;-69
2022/04/04 09:13:17;;;;;;;;;5.00;5.00;;;;;7.97;39.20;101496.59;5001444;28;47739;-67
2022/04/04 09:16:03;;;;;;;;;2.00;2.00;;;;;8.04;39.05;101495.78;5000256;28;45826;-68
2022/04/04 09:18:40;;;;;;;;;4.25;4.25;;;;;8.16;39.16;101491.50;5001800;28;45324;-68
2022/04/04 09:21:13;;;;;;;;;4.75;4.50;;;;;8.22;38.89;101492.44;5000036;28;45745;-69
2022/04/04 09:23:48;;;;;;;;;4.00;4.00;;;;;8.32;38.60;101500.38;5001508;28;46306;-68
2022/04/04 09:26:42;;;;;;;;;4.25;4.25;;;;;8.31;38.92;101504.72;5001143;28;45324;-69
2022/04/04 09:29:16;;;;;;;;;6.00;6.00;;;;;8.41;38.58;101497.81;5001166;28;45543;-69
2022/04/04 09:32:05;;;;;;;;;4.25;3.50;;;;;8.44;38.75;101485.59;5001573;28;45487;-68
2022/04/04 09:35:01;;;;;;;;;9.00;5.75;;;;;8.53;38.69;101478.69;5001208;28;46285;-68
2022/04/04 09:37:33;;;;;;;;;6.00;4.00;;;;;8.57;38.64;101468.25;5001298;28;45403;-67
2022/04/04 09:40:18;;;;;;;;;8.75;5.25;;;;;8.72;38.31;101474.47;5001358;28;45410;-68
2022/04/04 09:42:58;;;;;;;;;5.50;3.75;;;;;8.81;38.53;101464.00;5000900;28;45336;-69
2022/04/04 09:45:26;;;;;;;;;3.50;3.50;;;;;8.87;38.40;101465.78;5000907;28;45366;-68
2022/04/04 09:47:54;;;;;;;;;5.00;5.00;;;;;8.89;38.49;101459.69;5001129;28;45357;-68
2022/04/04 09:50:41;;;;;;;;;3.25;3.25;;;;;9.01;38.03;101457.97;5001014;28;45480;-68
2022/04/04 09:53:30;;;;;;;;;3.50;3.00;;;;;9.08;38.21;101457.13;5000762;28;45255;-68
2022/04/04 09:55:57;;;;;;;;;3.25;3.25;;;;;9.19;37.78;101467.66;4997128;28;46214;-68
2022/04/04 09:58:25;;;;;;;;;3.75;3.75;;;;;9.20;37.86;101453.66;4999278;28;45428;-69
2022/04/04 10:00:50;;;;;;;;;3.00;3.00;;;;;9.28;37.80;101446.69;5001103;28;45406;-69
2022/04/04 10:03:17;;;;;;;;;4.00;4.00;;;;;9.43;37.69;101433.63;5000919;28;45158;-67
2022/04/04 10:05:46;;;;;;;;;4.00;4.00;;;;;9.55;37.52;101455.50;5000979;28;45418;-68
2022/04/04 10:08:17;;;;;;;;;4.00;4.00;;;;;9.63;37.37;101445.00;5000560;28;45361;-68
2022/04/04 10:10:43;;;;;;;;;2.00;2.00;;;;;9.72;37.61;101442.38;5000649;28;45246;-68
2022/04/04 10:13:10;;;;;;;;;4.25;2.75;;;;;9.80;37.67;101432.78;4998569;28;45346;-68
2022/04/04 10:15:39;;;;;;;;;5.00;4.00;;;;;9.91;36.97;101419.63;5000661;28;46108;-68
2022/04/04 10:18:06;;;;;;;;;9.00;5.25;;;;;10.05;37.17;101427.50;5015371;28;45328;-66
2022/04/04 10:20:32;;;;;;;;;4.00;4.00;;;;;10.16;37.03;101415.25;4999515;28;45377;-66
2022/04/04 10:22:58;;;;;;;;;4.00;4.00;;;;;10.19;37.41;101419.63;5000612;28;45640;-66
2022/04/04 10:25:26;;;;;;;;;4.00;4.00;;;;;10.31;37.07;101423.97;5000642;28;45552;-67
2022/04/04 10:27:52;;;;;;;;;4.25;4.25;;;;;10.38;36.87;101415.22;5000153;28;45393;-66
2022/04/04 10:30:29;;;;;;;;;5.25;5.25;;;;;10.46;36.81;101394.19;4999347;28;45415;-66
2022/04/04 10:32:55;;;;;;;;;4.00;4.00;;;;;10.62;36.66;101411.63;5000633;28;45384;-66
2022/04/04 10:35:26;;;;;;;;;3.75;3.75;;;;;10.75;36.53;101401.09;5000422;28;46398;-66
2022/04/04 10:37:51;;;;;;;;;3.00;2.75;;;;;10.89;36.66;101405.41;5000557;28;45458;-67
2022/04/04 10:40:24;;;;;;;;;4.00;3.00;;;;;11.08;36.78;101392.16;5000341;28;45329;-67
2022/04/04 10:43:07;;;;;;;;;4.00;4.00;;;;;11.31;36.76;101378.84;5000151;28;45389;-67
2022/04/04 10:46:02;;;;;;;;;5.00;5.00;;;;;11.52;36.71;101388.34;5000113;28;45365;-66
2022/04/04 10:48:37;;;;;;;;;3.50;3.50;;;;;11.69;36.61;101379.44;5000087;28;45195;-67
2022/04/04 10:51:17;;;;;;;;;5.25;4.00;;;;;11.86;36.52;101379.25;4999224;28;45388;-67
2022/04/04 10:53:54;;;;;;;;;4.00;3.25;;;;;11.95;36.45;101373.91;5000129;28;45347;-67
2022/04/04 10:56:30;;;;;;;;;4.00;4.00;;;;;12.04;36.23;101375.63;4999733;28;47001;-66
2022/04/04 10:59:20;;;;;;;;;4.50;4.50;;;;;12.15;36.18;101357.06;4998622;28;45291;-66
2022/04/04 11:01:49;;;;;;;;;3.75;3.50;;;;;12.19;36.24;101346.47;4999915;28;45443;-67
2022/04/04 11:04:31;;;;;;;;;3.00;3.00;;;;;12.33;36.12;101346.31;5000029;28;45289;-68
2022/04/04 11:10:05;;;;;;;;;2.25;2.25;;;;;12.68;35.90;101357.31;4999865;28;45313;-68
2022/04/04 11:13:13;;;;;;;;;2.50;2.00;;;;;12.87;35.94;101323.66;4999737;28;45310;-68
2022/04/04 11:15:43;;;;;;;;;5.75;5.00;;;;;13.03;35.89;101320.78;4999841;28;45299;-68
2022/04/04 11:18:09;;;;;;;;;4.00;3.75;;;;;13.30;35.52;101319.47;4986527;28;45539;-66
2022/04/04 11:20:36;;;;;;;;;3.50;2.25;;;;;13.56;35.65;101318.19;4999794;28;45402;-67
2022/04/04 11:23:10;;;;;;;;;3.50;3.50;;;;;13.85;35.59;101322.06;5000968;28;45231;-68
2022/04/04 11:25:38;;;;;;;;;2.00;1.25;;;;;14.09;35.52;101303.13;5002979;28;45191;-68
2022/04/04 11:28:05;;;;;;;;;3.75;3.00;;;;;14.28;35.46;101295.66;5003011;28;46220;-67